ěÝzenÝ letovÚho provozu ╚eskÚ republiky
Letiste: LKTB Aktualizace: 13.06.2021 23:06:25  UTC
 METAR LKTB 13.06. 23:00 ...
METAR LKTB 132300Z 30006KT CAVOK 12/06 Q1025 NOSIG RMK REG QNH 1022=
 TAF LKTB 13.06. 23:00 ...
TAF LKTB 132300Z 1400/1506 34008KT CAVOK      BECMG 1410/1412 13006KT=